Time;durP1;ratioP1;P1;durP2;ratioP2;P2;SDS_P1;SDS_P2;PMS_P1;PMS_P2;Temp;Humidity;BMP_temperature;BMP_pressure;BME280_temperature;BME280_humidity;BME280_pressure;Samples;Min_cycle;Max_cycle;Signal;HPM_P1;HPM_P2
2022/07/21 00:01:33;;;;;;;7.88;2.15;;;;;;;15.33;59.78;98702.53;4989338;28;20039;-75
2022/07/21 00:03:59;;;;;;;4.75;2.13;;;;;;;15.38;59.89;98721.69;4972982;28;20502;-75
2022/07/21 00:06:25;;;;;;;3.80;2.10;;;;;;;15.39;59.71;98720.72;4974104;28;20560;-74
2022/07/21 00:08:51;;;;;;;3.22;2.25;;;;;;;15.45;59.66;98722.69;4989059;28;20047;-74
2022/07/21 00:11:17;;;;;;;7.03;2.13;;;;;;;15.52;59.61;98719.16;4972861;28;20049;-75
2022/07/21 00:13:43;;;;;;;4.80;2.10;;;;;;;15.54;59.29;98719.84;4972633;28;20505;-75
2022/07/21 00:16:09;;;;;;;4.22;2.25;;;;;;;15.56;59.42;98719.66;4989203;28;20043;-74
2022/07/21 00:18:35;;;;;;;3.80;2.10;;;;;;;15.66;59.48;98716.84;4972801;28;20046;-73
2022/07/21 00:21:01;;;;;;;3.55;2.25;;;;;;;15.71;59.42;98712.59;4956670;28;20043;-75
2022/07/21 00:23:27;;;;;;;2.05;1.95;;;;;;;15.84;59.03;98713.97;4973316;28;20170;-74
2022/07/21 00:25:53;;;;;;;2.55;1.92;;;;;;;15.88;58.92;98712.59;4988954;28;20059;-75
2022/07/21 00:28:20;;;;;;;3.55;2.00;;;;;;;15.98;58.51;98703.31;4989023;28;20061;-74
2022/07/21 00:30:46;;;;;;;2.38;2.00;;;;;;;16.02;58.37;98693.00;4974457;28;20062;-75
2022/07/21 00:33:13;;;;;;;3.33;2.00;;;;;;;16.13;57.90;98692.63;4972682;28;20054;-74
2022/07/21 00:35:39;;;;;;;1.92;1.75;;;;;;;16.35;57.77;98709.06;4988923;28;20047;-75
2022/07/21 00:38:05;;;;;;;5.72;2.10;;;;;;;16.46;57.46;98705.97;4972518;28;20545;-75
2022/07/21 00:40:32;;;;;;;4.40;2.10;;;;;;;16.55;57.06;98707.63;4972634;28;20407;-75
2022/07/21 00:42:58;;;;;;;5.18;2.25;;;;;;;16.67;56.54;98708.06;4972659;28;20498;-74
2022/07/21 00:45:24;;;;;;;4.22;2.10;;;;;;;16.73;56.61;98718.13;4989122;28;20078;-74
2022/07/21 00:47:50;;;;;;;6.40;2.30;;;;;;;16.78;56.44;98720.38;4992795;28;20081;-74
2022/07/21 00:50:18;;;;;;;7.10;3.42;;;;;;;16.77;56.12;98710.56;4977729;28;20089;-75
2022/07/21 00:52:46;;;;;;;3.07;2.23;;;;;;;16.85;55.80;98729.41;4976484;28;20051;-74
2022/07/21 00:55:15;;;;;;;7.15;2.60;;;;;;;16.83;56.00;98724.19;4976889;28;20297;-74
2022/07/21 00:57:42;;;;;;;5.10;2.40;;;;;;;16.79;56.19;98730.13;4992635;28;20039;-74
2022/07/21 01:00:12;;;;;;;5.30;2.55;;;;;;;16.72;56.29;98720.00;4960233;28;20046;-74
2022/07/21 01:02:38;;;;;;;5.70;2.70;;;;;;;16.66;56.44;98727.97;4960196;28;20067;-74
2022/07/21 01:05:06;;;;;;;8.57;2.58;;;;;;;16.54;56.80;98723.97;4976938;28;20042;-73
2022/07/21 01:07:32;;;;;;;9.68;2.22;;;;;;;16.51;56.61;98727.84;4976180;28;20504;-73
2022/07/21 01:09:59;;;;;;;3.95;2.63;;;;;;;16.32;57.00;98714.78;4976105;28;20493;-74
2022/07/21 01:12:25;;;;;;;7.13;2.40;;;;;;;16.42;57.15;98726.22;4992373;28;20502;-75
2022/07/21 01:14:51;;;;;;;6.32;2.55;;;;;;;16.47;56.80;98726.53;4975885;28;20042;-75
2022/07/21 01:17:17;;;;;;;7.88;2.40;;;;;;;16.54;56.96;98729.38;4975847;28;20498;-74
2022/07/21 01:19:44;;;;;;;9.15;2.67;;;;;;;16.58;56.87;98726.16;4992329;28;20042;-73
2022/07/21 01:22:10;;;;;;;6.38;2.30;;;;;;;16.62;56.90;98727.47;4975904;28;20069;-74
2022/07/21 01:24:36;;;;;;;6.60;2.42;;;;;;;16.69;56.26;98730.31;4977014;28;20065;-74
2022/07/21 01:27:02;;;;;;;5.05;2.45;;;;;;;16.72;56.29;98738.91;4977155;28;20506;-75
2022/07/21 01:29:28;;;;;;;8.90;2.58;;;;;;;16.68;56.27;98728.63;4991993;28;20043;-74
2022/07/21 01:31:54;;;;;;;6.25;2.10;;;;;;;16.76;56.27;98734.00;4991912;28;20531;-75
2022/07/21 01:34:20;;;;;;;6.63;2.42;;;;;;;16.75;56.48;98743.97;4975616;28;20070;-74
2022/07/21 01:36:46;;;;;;;10.23;2.60;;;;;;;16.69;56.28;98733.00;4975533;28;20070;-75
2022/07/21 01:41:58;;;;;;;5.50;2.47;;;;;;;16.78;56.54;98731.16;4977189;28;20049;-74
2022/07/21 01:44:24;;;;;;;4.82;2.15;;;;;;;16.83;56.43;98734.16;4991732;28;20097;-75
2022/07/21 01:46:51;;;;;;;3.08;2.20;;;;;;;16.80;56.24;98726.41;4959288;28;20446;-75
2022/07/21 01:49:19;;;;;;;8.85;2.63;;;;;;;16.90;56.22;98735.97;4975376;28;20494;-74
2022/07/21 01:51:45;;;;;;;3.20;2.20;;;;;;;16.90;56.18;98735.13;4959507;28;20409;-75
2022/07/21 01:54:11;;;;;;;10.45;2.40;;;;;;;16.95;56.25;98735.44;4975123;28;20042;-75
2022/07/21 01:56:38;;;;;;;5.00;2.20;;;;;;;17.03;55.99;98735.38;4975884;28;20399;-75
2022/07/21 01:59:05;;;;;;;7.78;2.50;;;;;;;16.99;55.36;98731.34;4974670;28;20187;-74
2022/07/21 02:01:31;;;;;;;8.48;2.33;;;;;;;16.95;55.61;98725.47;4991448;28;20038;-74
2022/07/21 02:04:00;;;;;;;8.32;2.35;;;;;;;16.98;55.59;98737.78;4975268;28;20078;-74
2022/07/21 02:06:27;;;;;;;8.35;2.67;;;;;;;17.05;55.57;98744.16;4974968;28;20035;-75
2022/07/21 02:08:53;;;;;;;5.05;2.17;;;;;;;16.98;55.72;98744.00;4958864;28;20051;-75
2022/07/21 02:11:20;;;;;;;7.47;2.63;;;;;;;17.03;55.77;98748.03;4976163;28;20409;-74
2022/07/21 02:13:46;;;;;;;5.93;2.60;;;;;;;17.09;55.76;98745.47;4991069;28;20049;-74
2022/07/21 02:16:12;;;;;;;6.60;2.30;;;;;;;17.18;55.60;98743.53;4975232;28;20508;-74
2022/07/21 02:18:38;;;;;;;4.82;2.30;;;;;;;17.30;54.96;98741.25;4974639;28;20053;-76
2022/07/21 02:21:05;;;;;;;12.02;2.40;;;;;;;17.38;54.62;98752.84;4991412;28;20058;-75
2022/07/21 02:23:32;;;;;;;4.05;2.33;;;;;;;17.41;54.76;98751.63;4974888;28;20573;-73
2022/07/21 02:25:58;;;;;;;4.50;2.25;;;;;;;17.40;54.72;98744.56;4974685;28;20054;-76
2022/07/21 02:28:25;;;;;;;7.00;2.33;;;;;;;17.42;54.18;98735.25;4974824;28;20050;-74
2022/07/21 02:30:51;;;;;;;9.68;2.42;;;;;;;17.46;54.27;98733.88;4991149;28;20074;-75
2022/07/21 02:33:17;;;;;;;8.18;2.72;;;;;;;17.57;54.13;98743.41;4990487;28;20043;-75
2022/07/21 02:35:44;;;;;;;7.50;2.30;;;;;;;17.62;54.29;98750.97;4974569;28;20051;-74
2022/07/21 02:38:11;;;;;;;6.25;2.28;;;;;;;17.84;54.29;98752.81;4990595;28;20069;-73
2022/07/21 02:40:37;;;;;;;6.60;3.17;;;;;;;18.05;53.66;98754.78;4974235;28;20399;-74
2022/07/21 02:43:05;;;;;;;4.53;2.40;;;;;;;18.11;53.21;98764.88;4974704;28;20522;-78
2022/07/21 02:45:32;;;;;;;5.90;2.35;;;;;;;18.04;52.73;98734.19;4975542;28;20498;-75
2022/07/21 02:48:00;;;;;;;8.50;2.45;;;;;;;18.23;52.93;98754.44;4965639;28;20089;-75
2022/07/21 02:50:29;;;;;;;9.63;2.40;;;;;;;18.19;52.65;98748.56;4990318;28;20046;-76
2022/07/21 02:53:00;;;;;;;11.32;2.78;;;;;;;18.29;52.67;98759.13;4974109;28;20047;-76
2022/07/21 02:55:27;;;;;;;10.52;2.60;;;;;;;18.27;52.65;98746.78;4974396;28;20145;-78
2022/07/21 02:58:14;;;;;;;9.80;2.42;;;;;;;18.43;52.74;98765.56;4975460;28;20101;-76
2022/07/21 03:00:50;;;;;;;8.63;2.65;;;;;;;18.57;52.16;98767.41;4975416;28;20047;-76
2022/07/21 03:03:17;;;;;;;7.30;2.67;;;;;;;18.68;52.26;98769.63;4973916;28;20061;-77
2022/07/21 03:05:43;;;;;;;10.30;3.38;;;;;;;18.98;51.74;98769.63;4990043;28;20494;-75
2022/07/21 03:08:10;;;;;;;4.85;2.30;;;;;;;19.17;51.06;98774.41;4974740;28;20061;-76
2022/07/21 03:10:36;;;;;;;5.28;2.53;;;;;;;19.40;50.41;98778.81;4973578;28;20043;-77
2022/07/21 03:13:03;;;;;;;11.13;2.35;;;;;;;19.67;50.17;98779.09;4974259;28;20500;-75
2022/07/21 03:15:29;;;;;;;6.97;2.67;;;;;;;19.86;49.60;98778.47;4989898;28;20039;-75
2022/07/21 03:17:56;;;;;;;13.90;2.70;;;;;;;19.94;49.14;98789.16;4989883;28;20073;-78
2022/07/21 03:20:27;;;;;;;14.00;3.30;;;;;;;19.85;49.17;98793.03;4990110;28;20110;-76
2022/07/21 03:22:53;;;;;;;13.82;2.90;;;;;;;19.74;49.96;98790.84;4974524;28;20051;-75
2022/07/21 03:25:20;;;;;;;11.80;3.33;;;;;;;19.73;50.07;98805.44;4974390;28;20485;-75
2022/07/21 03:27:47;;;;;;;15.20;3.00;;;;;;;19.61;50.53;98792.38;4973544;28;20138;-76
2022/07/21 03:30:14;;;;;;;18.58;3.25;;;;;;;19.53;50.76;98792.50;4973470;28;20038;-76
2022/07/21 03:32:41;;;;;;;11.40;2.65;;;;;;;19.54;51.55;98796.91;4989917;28;20056;-77
2022/07/21 03:35:09;;;;;;;11.13;3.42;;;;;;;19.27;52.90;98787.66;4974537;28;20050;-76
2022/07/21 03:37:43;;;;;;;6.70;2.25;;;;;;;19.31;52.98;98801.66;4974584;28;20058;-75
2022/07/21 03:40:12;;;;;;;8.27;2.85;;;;;;;19.21;53.67;98784.88;4973322;28;20075;-76
2022/07/21 03:42:38;;;;;;;10.43;3.00;;;;;;;19.28;54.05;98793.91;4957014;28;20051;-77
2022/07/21 03:45:05;;;;;;;7.25;3.10;;;;;;;19.32;54.83;98787.06;4972968;28;20074;-76
2022/07/21 03:47:31;;;;;;;8.80;3.08;;;;;;;19.36;54.76;98785.66;4956524;28;20046;-78
2022/07/21 03:49:57;;;;;;;15.93;3.55;;;;;;;19.39;54.87;98777.16;4974405;28;20050;-78
2022/07/21 03:52:23;;;;;;;15.18;3.22;;;;;;;19.54;55.38;98780.63;4969920;28;20580;-75
2022/07/21 03:54:49;;;;;;;10.18;3.22;;;;;;;19.78;54.79;98786.72;4954908;28;20098;-77
2022/07/21 03:57:15;;;;;;;13.10;3.30;;;;;;;19.96;54.49;98781.66;4954868;28;20055;-76
2022/07/21 03:59:40;;;;;;;9.50;3.03;;;;;;;20.14;54.56;98790.13;4954723;29;20458;-77
2022/07/21 04:02:06;;;;;;;9.60;3.30;;;;;;;20.29;54.49;98792.75;4953303;29;20122;-78
2022/07/21 04:04:32;;;;;;;7.43;3.33;;;;;;;20.31;54.38;98787.97;4954942;29;20210;-76
2022/07/21 04:06:58;;;;;;;10.32;3.63;;;;;;;20.41;53.63;98786.75;4953929;28;20062;-77
2022/07/21 04:09:23;;;;;;;11.40;3.97;;;;;;;20.43;54.05;98784.69;4951313;28;20415;-78
2022/07/21 04:11:52;;;;;;;5.95;3.17;;;;;;;20.35;54.04;98774.84;4953443;29;20043;-77
2022/07/21 04:14:18;;;;;;;8.90;3.75;;;;;;;20.47;54.49;98772.41;4954599;29;20105;-77
2022/07/21 04:16:44;;;;;;;10.88;4.03;;;;;;;20.51;53.75;98788.13;4954752;28;20138;-78
2022/07/21 04:19:09;;;;;;;6.63;3.40;;;;;;;20.44;53.92;98781.78;4969555;28;20384;-78
2022/07/21 04:21:35;;;;;;;7.00;3.55;;;;;;;20.29;53.99;98791.91;4936713;29;20059;-78
2022/07/21 04:24:01;;;;;;;6.25;3.42;;;;;;;20.07;53.82;98785.69;4954508;29;20047;-78
2022/07/21 04:26:27;;;;;;;12.38;3.90;;;;;;;19.94;54.17;98786.44;4953628;29;20039;-77
2022/07/21 04:28:54;;;;;;;11.30;3.35;;;;;;;19.68;55.18;98787.06;4954646;28;20051;-76
2022/07/21 04:31:20;;;;;;;8.40;3.58;;;;;;;19.66;55.31;98789.09;4954939;28;20070;-76
2022/07/21 04:33:46;;;;;;;7.55;3.72;;;;;;;19.73;55.59;98783.75;4969474;28;20043;-77
2022/07/21 04:36:12;;;;;;;5.75;3.40;;;;;;;19.86;55.61;98773.03;4953642;29;20054;-77
2022/07/21 04:38:37;;;;;;;11.43;4.78;;;;;;;19.91;55.66;98778.69;4953259;29;20178;-77
2022/07/21 04:41:03;;;;;;;19.63;4.30;;;;;;;20.00;55.67;98769.38;4953127;29;20035;-77
2022/07/21 04:43:29;;;;;;;11.60;4.00;;;;;;;20.00;55.76;98768.53;4953200;29;20043;-76
2022/07/21 04:45:55;;;;;;;9.68;4.20;;;;;;;20.04;55.62;98759.78;4969339;28;20113;-77
2022/07/21 04:48:20;;;;;;;9.40;4.43;;;;;;;20.18;55.56;98771.59;4953399;29;20039;-77
2022/07/21 04:50:46;;;;;;;10.98;4.40;;;;;;;20.35;55.61;98766.69;4954220;28;20043;-77
2022/07/21 04:53:12;;;;;;;6.07;4.70;;;;;;;20.55;55.01;98751.38;4954104;28;20046;-77
2022/07/21 04:55:38;;;;;;;9.60;3.92;;;;;;;20.63;54.63;98738.66;4969052;28;20047;-77
2022/07/21 04:58:03;;;;;;;6.47;3.78;;;;;;;20.72;54.19;98742.88;4953033;29;20134;-76
2022/07/21 05:00:29;;;;;;;13.90;4.47;;;;;;;20.92;54.28;98751.97;4969224;28;20141;-78
2022/07/21 05:02:55;;;;;;;5.00;3.90;;;;;;;20.99;53.55;98736.50;4969370;28;20047;-77
2022/07/21 05:05:24;;;;;;;6.20;3.45;;;;;;;21.14;53.63;98743.63;4954286;28;20520;-78
2022/07/21 05:07:50;;;;;;;8.98;4.28;;;;;;;21.34;53.36;98750.84;4954475;28;20051;-78
2022/07/21 05:10:18;;;;;;;8.98;4.30;;;;;;;21.55;53.08;98749.84;4953309;29;20043;-78
2022/07/21 05:12:43;;;;;;;9.93;4.10;;;;;;;21.64;52.61;98739.56;4954266;28;20047;-77
2022/07/21 05:15:13;;;;;;;13.25;4.10;;;;;;;21.84;52.14;98755.88;4954169;28;20137;-79
2022/07/21 05:17:40;;;;;;;23.10;4.50;;;;;;;21.90;51.92;98751.50;4954241;28;20066;-76
2022/07/21 05:20:07;;;;;;;7.50;3.90;;;;;;;22.04;51.59;98759.47;4968862;28;20047;-78
2022/07/21 05:22:33;;;;;;;10.88;4.00;;;;;;;22.30;51.46;98755.88;4954499;29;20082;-77
2022/07/21 05:24:59;;;;;;;6.53;3.55;;;;;;;22.40;50.38;98749.97;4954063;28;20059;-77
2022/07/21 05:27:25;;;;;;;12.35;3.30;;;;;;;22.57;50.38;98750.38;4953036;29;20043;-77
2022/07/21 05:29:50;;;;;;;10.55;3.92;;;;;;;22.78;49.73;98752.78;4968875;28;20476;-77
2022/07/21 05:32:16;;;;;;;7.97;3.17;;;;;;;22.96;49.05;98746.66;4955571;28;20573;-77
2022/07/21 05:34:42;;;;;;;9.40;3.45;;;;;;;22.91;48.64;98732.88;4956429;29;20046;-78
2022/07/21 05:37:08;;;;;;;6.25;3.20;;;;;;;23.05;48.66;98735.50;4957527;28;20043;-79
2022/07/21 05:39:34;;;;;;;4.57;2.92;;;;;;;23.29;47.67;98753.84;4956146;29;20117;-78
2022/07/21 05:41:59;;;;;;;4.43;2.53;;;;;;;23.42;47.36;98753.72;4957810;28;20047;-77
2022/07/21 05:44:25;;;;;;;3.38;2.80;;;;;;;23.41;46.93;98748.50;4956072;29;20070;-78
2022/07/21 05:46:51;;;;;;;7.43;2.83;;;;;;;23.42;46.11;98737.38;4956097;29;20042;-77
2022/07/21 05:49:17;;;;;;;4.20;2.50;;;;;;;23.50;45.36;98747.19;4957341;28;20050;-77
2022/07/21 05:51:43;;;;;;;13.88;2.80;;;;;;;23.61;45.67;98734.72;4957356;28;20039;-77
2022/07/21 05:54:08;;;;;;;6.72;2.50;;;;;;;23.78;44.59;98741.34;4971803;28;20101;-77
2022/07/21 05:56:34;;;;;;;4.53;2.10;;;;;;;23.84;43.62;98740.44;4956823;28;20039;-77
2022/07/21 05:59:00;;;;;;;6.57;2.20;;;;;;;23.93;43.30;98728.19;4955937;29;20599;-77
2022/07/21 06:01:26;;;;;;;7.78;1.95;;;;;;;24.14;41.97;98740.56;4956975;28;20537;-77
2022/07/21 06:03:52;;;;;;;2.08;1.70;;;;;;;24.08;41.19;98738.75;4955963;29;20414;-76
2022/07/21 06:06:19;;;;;;;8.63;1.95;;;;;;;24.21;41.65;98740.50;4971544;28;20133;-79
2022/07/21 06:08:47;;;;;;;3.70;1.60;;;;;;;24.41;40.93;98737.59;4955270;29;20430;-76
2022/07/21 06:11:19;;;;;;;1.92;1.60;;;;;;;24.47;40.03;98734.81;4955123;29;20507;-76
2022/07/21 06:13:46;;;;;;;4.07;1.77;;;;;;;24.40;40.59;98734.03;4939602;29;20495;-77
2022/07/21 06:16:12;;;;;;;6.75;1.75;;;;;;;24.56;40.04;98737.22;4955635;29;20051;-76
2022/07/21 06:18:38;;;;;;;4.03;1.85;;;;;;;24.61;38.96;98729.19;4956722;28;20043;-77
2022/07/21 06:21:04;;;;;;;5.22;1.83;;;;;;;24.67;39.57;98739.19;4955362;29;20443;-78
2022/07/21 06:23:31;;;;;;;11.65;1.85;;;;;;;24.80;38.86;98730.84;4956559;29;20050;-78
2022/07/21 06:25:57;;;;;;;4.65;1.63;;;;;;;24.85;38.62;98744.66;4971287;28;20150;-77
2022/07/21 06:28:23;;;;;;;3.75;1.63;;;;;;;24.95;38.53;98736.75;4956460;29;20039;-76
2022/07/21 06:30:49;;;;;;;2.88;1.30;;;;;;;24.93;38.43;98738.88;4971433;28;20402;-77
2022/07/21 06:33:16;;;;;;;7.82;1.80;;;;;;;24.96;38.43;98730.19;4955106;29;20494;-77
2022/07/21 06:35:43;;;;;;;8.38;2.08;;;;;;;25.14;37.75;98731.28;4971223;28;20106;-77
2022/07/21 06:38:09;;;;;;;5.05;1.90;;;;;;;25.28;37.95;98734.66;4971036;28;20035;-77
2022/07/21 06:40:35;;;;;;;8.57;2.22;;;;;;;25.35;37.62;98738.97;4956357;28;20090;-75
2022/07/21 06:43:01;;;;;;;7.57;1.90;;;;;;;25.41;37.85;98740.75;4954556;28;20043;-77
2022/07/21 06:45:27;;;;;;;3.70;2.08;;;;;;;25.65;37.18;98744.41;4970898;28;20054;-77
2022/07/21 06:48:13;;;;;;;6.07;2.08;;;;;;;25.84;36.41;98736.97;4955144;28;20080;-79
2022/07/21 06:50:39;;;;;;;9.50;2.00;;;;;;;25.88;36.37;98738.16;4955899;28;20061;-77
2022/07/21 06:53:06;;;;;;;2.00;1.55;;;;;;;25.96;36.71;98736.13;4954733;29;20039;-77
2022/07/21 06:55:33;;;;;;;4.45;1.30;;;;;;;26.29;35.86;98730.91;4970767;28;20076;-77
2022/07/21 06:58:17;;;;;;;9.35;1.27;;;;;;;26.58;36.33;98734.56;4954639;29;20047;-78
2022/07/21 07:00:45;;;;;;;4.93;0.93;;;;;;;26.28;35.19;98734.69;4954851;29;20081;-78
2022/07/21 07:03:11;;;;;;;1.27;1.00;;;;;;;26.64;34.85;98736.34;4938736;29;20102;-78
2022/07/21 07:05:38;;;;;;;6.40;1.38;;;;;;;27.07;34.50;98732.25;4954968;29;20047;-77
2022/07/21 07:08:04;;;;;;;4.20;1.20;;;;;;;27.34;34.37;98721.59;4954539;29;20047;-77
2022/07/21 07:10:30;;;;;;;3.53;1.00;;;;;;;27.03;33.37;98727.53;4970782;28;20490;-78
2022/07/21 07:12:56;;;;;;;1.27;1.00;;;;;;;27.29;33.42;98740.69;4954346;29;20047;-77
2022/07/21 07:15:23;;;;;;;5.85;0.80;;;;;;;27.61;32.64;98729.19;4954301;29;20043;-78
2022/07/21 07:17:50;;;;;;;6.72;1.00;;;;;;;27.69;31.29;98738.91;4954166;29;20047;-78
2022/07/21 07:20:15;;;;;;;1.75;0.90;;;;;;;27.79;31.48;98722.63;4954633;29;20059;-78
2022/07/21 07:22:41;;;;;;;1.42;0.90;;;;;;;27.78;31.62;98732.78;4970588;28;20075;-77
2022/07/21 07:25:08;;;;;;;3.83;1.00;;;;;;;28.09;31.57;98730.50;4955538;28;20055;-77
2022/07/21 07:27:34;;;;;;;9.88;0.90;;;;;;;28.19;31.23;98727.94;4954154;29;20051;-78
2022/07/21 07:30:00;;;;;;;2.00;1.00;;;;;;;28.39;31.28;98732.09;4970172;28;20515;-78
2022/07/21 07:32:26;;;;;;;3.05;1.08;;;;;;;28.61;31.10;98730.19;4970071;28;20101;-77
2022/07/21 07:34:52;;;;;;;2.63;0.90;;;;;;;28.70;30.85;98733.34;4953982;29;20043;-77
2022/07/21 07:37:18;;;;;;;5.20;1.05;;;;;;;28.74;31.13;98721.56;4954539;29;20049;-78
2022/07/21 07:39:43;;;;;;;2.95;0.77;;;;;;;28.42;31.32;98715.91;4955534;28;20530;-77
2022/07/21 07:42:09;;;;;;;4.45;1.00;;;;;;;28.41;31.21;98724.44;4954002;29;20047;-77
2022/07/21 07:44:35;;;;;;;3.90;0.80;;;;;;;28.18;31.33;98718.03;4955259;28;20418;-77
2022/07/21 07:47:01;;;;;;;3.85;1.08;;;;;;;27.95;31.68;98712.75;4953944;29;20047;-78
2022/07/21 07:49:31;;;;;;;4.40;2.28;;;;;;;27.71;32.21;98706.53;4955105;28;20050;-76
2022/07/21 07:51:57;;;;;;;9.63;0.95;;;;;;;27.52;32.36;98706.78;4953923;29;20039;-78
2022/07/21 07:54:24;;;;;;;13.00;1.20;;;;;;;27.07;33.31;98715.81;4953384;28;20097;-77
2022/07/21 07:56:50;;;;;;;7.60;1.45;;;;;;;26.91;33.54;98715.78;4969905;28;20180;-78
2022/07/21 07:59:15;;;;;;;3.88;1.13;;;;;;;26.70;33.83;98720.81;4953469;29;20051;-77
2022/07/21 08:01:42;;;;;;;2.25;1.08;;;;;;;26.56;34.28;98708.50;4954022;29;20059;-77
2022/07/21 08:04:08;;;;;;;8.90;1.30;;;;;;;27.01;33.95;98716.81;4955128;28;20062;-78
2022/07/21 08:06:33;;;;;;;4.38;0.90;;;;;;;27.39;33.24;98698.03;4954861;28;20043;-77
2022/07/21 08:09:00;;;;;;;2.53;0.90;;;;;;;27.58;32.64;98693.97;4953802;29;20039;-76
2022/07/21 08:11:25;;;;;;;2.05;0.95;;;;;;;27.70;32.02;98697.47;4953496;29;20135;-77
2022/07/21 08:13:52;;;;;;;2.45;0.93;;;;;;;27.63;32.17;98713.28;4954839;28;20054;-76
2022/07/21 08:16:18;;;;;;;3.33;1.00;;;;;;;27.32;32.23;98701.78;4953728;29;20067;-78
2022/07/21 08:18:44;;;;;;;2.90;0.80;;;;;;;27.36;32.20;98691.97;4953800;29;20141;-78
2022/07/21 08:21:10;;;;;;;1.48;0.70;;;;;;;27.55;31.85;98700.78;4953569;28;20051;-77
2022/07/21 08:23:36;;;;;;;1.23;0.85;;;;;;;27.76;32.71;98693.78;4953562;29;20063;-77
2022/07/21 08:26:04;;;;;;;1.50;0.80;;;;;;;27.82;31.69;98689.19;4953247;29;20065;-77
2022/07/21 08:28:30;;;;;;;1.98;1.15;;;;;;;27.72;32.01;98695.31;4969292;28;20047;-77
2022/07/21 08:30:56;;;;;;;5.35;1.00;;;;;;;28.37;31.55;98695.75;4954521;28;20090;-76
2022/07/21 08:33:23;;;;;;;9.63;1.10;;;;;;;28.73;31.20;98689.63;4954635;28;20047;-78
2022/07/21 08:35:49;;;;;;;1.50;0.93;;;;;;;28.93;30.55;98696.50;4953539;29;20142;-78
2022/07/21 08:38:15;;;;;;;1.67;1.20;;;;;;;29.12;30.56;98694.25;4969068;28;20130;-78
2022/07/21 08:40:43;;;;;;;5.85;0.90;;;;;;;29.46;30.23;98687.41;4954414;28;20074;-77
2022/07/21 08:43:10;;;;;;;6.55;0.80;;;;;;;29.68;29.91;98692.88;4953158;28;20050;-77
2022/07/21 08:45:37;;;;;;;9.80;1.45;;;;;;;29.80;29.51;98686.34;4954765;29;20493;-78
2022/07/21 08:48:03;;;;;;;3.78;1.10;;;;;;;30.08;29.44;98687.91;4969212;28;20050;-77
2022/07/21 08:50:32;;;;;;;1.58;0.90;;;;;;;29.94;29.24;98690.28;4954257;28;20055;-78
2022/07/21 08:52:58;;;;;;;7.22;1.05;;;;;;;29.18;29.71;98688.50;4953063;29;20054;-77
2022/07/21 08:55:24;;;;;;;1.98;0.95;;;;;;;28.79;30.65;98676.78;4952941;29;20050;-78
2022/07/21 08:57:50;;;;;;;6.18;1.25;;;;;;;28.85;30.71;98688.66;4954439;28;20487;-78
2022/07/21 09:00:16;;;;;;;3.50;0.80;;;;;;;29.15;29.97;98674.44;4954352;28;20446;-80
2022/07/21 09:02:42;;;;;;;1.05;0.82;;;;;;;28.97;29.63;98678.38;4953019;29;20074;-77
2022/07/21 09:05:10;;;;;;;1.35;0.80;;;;;;;28.58;29.77;98681.19;4954122;28;20070;-77
2022/07/21 09:07:56;;;;;;;8.23;1.30;;;;;;;28.54;29.39;98682.81;4955077;28;20051;-77
2022/07/21 09:10:27;;;;;;;1.55;0.93;;;;;;;28.54;29.71;98678.13;4957758;28;20055;-77
2022/07/21 09:13:12;;;;;;;2.25;0.90;;;;;;;28.59;28.88;98688.38;4956539;29;20186;-77
2022/07/21 09:15:39;;;;;;;0.93;0.80;;;;;;;28.76;28.63;98675.38;4956944;29;20062;-76
2022/07/21 09:18:14;;;;;;;4.40;1.00;;;;;;;29.02;28.51;98676.53;4956644;29;20066;-77
2022/07/21 09:20:52;;;;;;;4.75;1.08;;;;;;;29.06;28.26;98676.00;4972300;28;20050;-78
2022/07/21 09:23:22;;;;;;;4.22;0.95;;;;;;;29.20;28.39;98686.34;4941154;29;20067;-78
2022/07/21 09:25:53;;;;;;;1.73;0.98;;;;;;;28.55;28.47;98692.75;4956158;29;20051;-77
2022/07/21 09:28:28;;;;;;;1.60;0.80;;;;;;;28.08;29.33;98687.66;4956535;29;20039;-77
2022/07/21 09:31:01;;;;;;;1.80;1.00;;;;;;;27.78;29.22;98683.34;4956642;29;20043;-77
2022/07/21 09:33:42;;;;;;;6.80;1.10;;;;;;;27.84;29.67;98678.78;4940451;29;20083;-78
2022/07/21 09:36:14;;;;;;;1.33;0.77;;;;;;;28.32;28.13;98677.25;4972345;28;20398;-77
2022/07/21 09:38:42;;;;;;;4.65;1.00;;;;;;;28.67;28.09;98676.09;4957274;29;20039;-78
2022/07/21 09:41:17;;;;;;;1.52;0.75;;;;;;;28.94;27.41;98676.97;4955845;29;20077;-77
2022/07/21 09:43:49;;;;;;;3.50;0.88;;;;;;;29.52;26.83;98674.50;4957666;28;20053;-78
2022/07/21 09:46:23;;;;;;;0.73;0.60;;;;;;;29.73;26.42;98670.88;4956363;29;20050;-77
2022/07/21 09:48:51;;;;;;;5.40;0.60;;;;;;;30.16;26.43;98691.03;4956410;29;20391;-77
2022/07/21 09:51:22;;;;;;;6.13;1.00;;;;;;;30.69;25.87;98693.78;4955953;29;20055;-77
2022/07/21 09:53:55;;;;;;;3.45;1.13;;;;;;;30.85;25.33;98687.25;4955843;29;20487;-76
2022/07/21 09:56:22;;;;;;;2.58;0.82;;;;;;;30.95;25.00;98680.91;4940058;29;20513;-77
2022/07/21 09:58:51;;;;;;;1.25;1.00;;;;;;;30.78;25.44;98669.28;4956029;29;20047;-79
2022/07/21 10:01:17;;;;;;;3.13;0.98;;;;;;;31.06;25.26;98682.59;4955719;29;20039;-79
2022/07/21 10:03:45;;;;;;;4.30;1.08;;;;;;;31.23;25.22;98681.56;4939731;29;20050;-78
2022/07/21 10:06:12;;;;;;;3.63;0.80;;;;;;;31.26;24.82;98692.06;4955740;29;20410;-78
2022/07/21 10:08:38;;;;;;;4.70;0.93;;;;;;;31.09;25.17;98676.53;4955609;29;20159;-78
2022/07/21 10:11:08;;;;;;;2.35;0.90;;;;;;;31.00;24.63;98671.84;4971827;28;20050;-77
2022/07/21 10:13:35;;;;;;;2.67;1.00;;;;;;;31.18;25.03;98674.94;4955869;29;20054;-78
2022/07/21 10:16:01;;;;;;;5.57;1.02;;;;;;;31.83;24.69;98679.94;4955488;29;20041;-78
2022/07/21 10:18:32;;;;;;;1.95;0.80;;;;;;;31.26;24.28;98676.31;4955336;28;20055;-78
2022/07/21 10:21:25;;;;;;;5.57;0.70;;;;;;;30.93;24.79;98675.69;4956539;28;20047;-77
2022/07/21 10:23:54;;;;;;;2.03;0.80;;;;;;;31.82;24.34;98681.03;4938932;29;20090;-78
2022/07/21 10:26:20;;;;;;;5.20;0.90;;;;;;;32.52;23.40;98670.97;4955696;29;20451;-78
2022/07/21 10:28:46;;;;;;;2.22;0.68;;;;;;;32.52;22.47;98664.63;4955761;29;20113;-79
2022/07/21 10:31:24;;;;;;;6.63;0.85;;;;;;;32.86;22.12;98682.16;4956570;28;20054;-78
2022/07/21 10:33:52;;;;;;;5.15;0.95;;;;;;;32.29;22.07;98675.19;4955618;29;20035;-77
2022/07/21 10:36:43;;;;;;;0.73;0.60;;;;;;;31.92;22.36;98683.81;4955616;29;20145;-77
2022/07/21 10:39:09;;;;;;;3.20;0.75;;;;;;;32.39;22.45;98671.56;4953480;28;20487;-77
2022/07/21 10:41:49;;;;;;;2.08;0.70;;;;;;;32.23;22.64;98675.47;4955112;29;20053;-78
2022/07/21 10:44:27;;;;;;;1.90;0.85;;;;;;;32.09;22.83;98670.53;4939992;29;20046;-77
2022/07/21 10:47:16;;;;;;;8.50;1.20;;;;;;;31.65;23.53;98662.81;4971267;28;20101;-78
2022/07/21 10:49:45;;;;;;;;;;;;;;;32.17;23.06;98669.13;4955083;29;20058;-77
2022/07/21 10:52:39;;;;;;;4.15;1.20;;;;;;;32.34;23.20;98679.88;4970783;28;20032;-77
2022/07/21 10:55:28;;;;;;;1.83;0.82;;;;;;;32.02;23.04;98667.22;4954734;29;20094;-78
2022/07/21 10:58:29;;;;;;;1.48;0.68;;;;;;;32.42;22.58;98671.00;4970997;28;20043;-79
2022/07/21 11:00:58;;;;;;;7.72;1.25;;;;;;;32.73;22.15;98676.44;4955447;28;20031;-78
2022/07/21 11:03:26;;;;;;;1.58;0.98;;;;;;;33.11;21.11;98661.84;4955057;29;20050;-77
2022/07/21 11:06:11;;;;;;;;;;;;;;;33.14;21.18;98671.53;4955320;29;20050;-78
2022/07/21 11:09:04;;;;;;;2.38;0.75;;;;;;;32.57;21.61;98664.59;4955891;29;19926;-77
2022/07/21 11:11:36;;;;;;;4.43;1.52;;;;;;;33.13;21.06;98670.69;4954411;29;20042;-77
2022/07/21 11:14:14;;;;;;;7.20;1.45;;;;;;;33.97;20.29;98656.75;4954776;29;20043;-77
2022/07/21 11:16:43;;;;;;;3.40;0.60;;;;;;;34.26;20.00;98661.44;4954472;28;20078;-78
2022/07/21 11:19:39;;;;;;;1.00;0.80;;;;;;;34.57;19.41;98653.63;4954283;29;20039;-78
2022/07/21 11:22:22;;;;;;;5.28;1.10;;;;;;;33.46;20.48;98656.34;4954698;29;20459;-79
2022/07/21 11:24:56;;;;;;;2.95;0.68;;;;;;;33.05;20.71;98640.84;4955477;28;20082;-78
2022/07/21 11:27:24;;;;;;;2.95;1.05;;;;;;;33.79;20.20;98654.72;4955340;28;20049;-77
2022/07/21 11:29:56;;;;;;;6.57;1.40;;;;;;;33.71;20.25;98652.56;4953703;28;20497;-77
2022/07/21 11:32:23;;;;;;;4.68;0.65;;;;;;;34.00;19.21;98653.44;4954662;29;20458;-78
2022/07/21 11:34:57;;;;;;;1.42;0.68;;;;;;;34.08;19.14;98655.56;4953974;29;20538;-78
2022/07/21 11:37:33;;;;;;;5.35;0.73;;;;;;;33.98;19.28;98652.88;4970072;28;20066;-76
2022/07/21 11:40:00;;;;;;;3.58;0.80;;;;;;;35.04;18.71;98652.72;4953967;29;20126;-77